sensor_id;sensor_type;location;lat;lon;timestamp;P1;durP1;ratioP1;P2;durP2;ratioP2
17812;SDS011;9030;50.792;8.320;2024-03-23T00:55:57;61.60;;;47.80;;
17812;SDS011;9030;50.792;8.320;2024-03-23T00:58:23;50.97;;;42.03;;
17812;SDS011;9030;50.792;8.320;2024-03-23T01:00:49;52.20;;;43.23;;
17812;SDS011;9030;50.792;8.320;2024-03-23T01:03:15;52.90;;;41.77;;
17812;SDS011;9030;50.792;8.320;2024-03-23T01:05:41;54.70;;;41.77;;
17812;SDS011;9030;50.792;8.320;2024-03-23T01:08:07;50.17;;;40.40;;
17812;SDS011;9030;50.792;8.320;2024-03-23T01:10:34;46.83;;;40.50;;
17812;SDS011;9030;50.792;8.320;2024-03-23T01:13:01;52.87;;;40.53;;
17812;SDS011;9030;50.792;8.320;2024-03-23T01:15:27;51.27;;;38.90;;
17812;SDS011;9030;50.792;8.320;2024-03-23T01:17:53;46.03;;;37.30;;
17812;SDS011;9030;50.792;8.320;2024-03-23T01:20:20;49.60;;;38.07;;
17812;SDS011;9030;50.792;8.320;2024-03-23T01:22:45;46.57;;;38.37;;
17812;SDS011;9030;50.792;8.320;2024-03-23T01:25:12;52.97;;;40.13;;
17812;SDS011;9030;50.792;8.320;2024-03-23T01:27:37;46.80;;;38.37;;
17812;SDS011;9030;50.792;8.320;2024-03-23T01:30:06;47.37;;;38.40;;
17812;SDS011;9030;50.792;8.320;2024-03-23T01:32:32;43.00;;;34.37;;
17812;SDS011;9030;50.792;8.320;2024-03-23T01:34:59;43.13;;;36.53;;
17812;SDS011;9030;50.792;8.320;2024-03-23T01:37:24;42.23;;;34.53;;
17812;SDS011;9030;50.792;8.320;2024-03-23T01:39:51;49.90;;;37.27;;
17812;SDS011;9030;50.792;8.320;2024-03-23T01:42:17;46.47;;;38.93;;
17812;SDS011;9030;50.792;8.320;2024-03-23T01:44:43;45.90;;;39.03;;
17812;SDS011;9030;50.792;8.320;2024-03-23T01:47:10;48.20;;;40.40;;
17812;SDS011;9030;50.792;8.320;2024-03-23T01:49:37;46.13;;;39.97;;
17812;SDS011;9030;50.792;8.320;2024-03-23T01:52:03;45.93;;;37.23;;
17812;SDS011;9030;50.792;8.320;2024-03-23T01:54:30;53.37;;;41.10;;
17812;SDS011;9030;50.792;8.320;2024-03-23T01:56:56;44.80;;;38.43;;
17812;SDS011;9030;50.792;8.320;2024-03-23T01:59:23;41.83;;;37.37;;
17812;SDS011;9030;50.792;8.320;2024-03-23T02:01:49;49.03;;;38.63;;
17812;SDS011;9030;50.792;8.320;2024-03-23T02:04:16;44.60;;;37.23;;
17812;SDS011;9030;50.792;8.320;2024-03-23T02:06:42;47.97;;;40.30;;
17812;SDS011;9030;50.792;8.320;2024-03-23T02:09:09;52.93;;;41.80;;
17812;SDS011;9030;50.792;8.320;2024-03-23T02:11:34;43.43;;;37.67;;
17812;SDS011;9030;50.792;8.320;2024-03-23T02:14:01;49.33;;;39.57;;
17812;SDS011;9030;50.792;8.320;2024-03-23T02:16:27;47.03;;;39.23;;
17812;SDS011;9030;50.792;8.320;2024-03-23T02:18:53;46.73;;;38.77;;
17812;SDS011;9030;50.792;8.320;2024-03-23T02:21:20;47.23;;;39.17;;
17812;SDS011;9030;50.792;8.320;2024-03-23T02:23:48;46.23;;;39.33;;
17812;SDS011;9030;50.792;8.320;2024-03-23T02:26:14;45.87;;;39.40;;
17812;SDS011;9030;50.792;8.320;2024-03-23T02:28:41;46.57;;;37.27;;
17812;SDS011;9030;50.792;8.320;2024-03-23T02:31:07;51.73;;;39.60;;
17812;SDS011;9030;50.792;8.320;2024-03-23T02:33:34;57.00;;;41.93;;
17812;SDS011;9030;50.792;8.320;2024-03-23T02:36:03;52.00;;;38.60;;
17812;SDS011;9030;50.792;8.320;2024-03-23T02:38:30;52.97;;;43.73;;
17812;SDS011;9030;50.792;8.320;2024-03-23T02:41:02;53.97;;;40.60;;
17812;SDS011;9030;50.792;8.320;2024-03-23T02:43:29;54.67;;;42.57;;
17812;SDS011;9030;50.792;8.320;2024-03-23T02:45:54;61.70;;;46.60;;
17812;SDS011;9030;50.792;8.320;2024-03-23T02:48:21;61.27;;;49.07;;
17812;SDS011;9030;50.792;8.320;2024-03-23T02:50:46;74.10;;;51.97;;
17812;SDS011;9030;50.792;8.320;2024-03-23T02:53:13;62.00;;;47.53;;
17812;SDS011;9030;50.792;8.320;2024-03-23T02:55:39;57.07;;;44.20;;
17812;SDS011;9030;50.792;8.320;2024-03-23T02:58:06;60.40;;;44.40;;
17812;SDS011;9030;50.792;8.320;2024-03-23T03:00:32;57.23;;;40.47;;
17812;SDS011;9030;50.792;8.320;2024-03-23T03:02:59;43.37;;;31.90;;
17812;SDS011;9030;50.792;8.320;2024-03-23T03:05:24;28.60;;;20.70;;
17812;SDS011;9030;50.792;8.320;2024-03-23T03:07:51;14.07;;;6.50;;
17812;SDS011;9030;50.792;8.320;2024-03-23T03:10:16;10.43;;;4.57;;
17812;SDS011;9030;50.792;8.320;2024-03-23T03:12:43;16.30;;;7.17;;
17812;SDS011;9030;50.792;8.320;2024-03-23T03:15:10;12.33;;;5.93;;
17812;SDS011;9030;50.792;8.320;2024-03-23T03:17:37;11.10;;;4.83;;
17812;SDS011;9030;50.792;8.320;2024-03-23T03:20:03;11.43;;;4.03;;
17812;SDS011;9030;50.792;8.320;2024-03-23T03:22:31;7.03;;;2.70;;
17812;SDS011;9030;50.792;8.320;2024-03-23T03:24:56;4.50;;;1.53;;
17812;SDS011;9030;50.792;8.320;2024-03-23T03:27:25;5.47;;;1.93;;
17812;SDS011;9030;50.792;8.320;2024-03-23T03:29:50;4.13;;;1.47;;
17812;SDS011;9030;50.792;8.320;2024-03-23T03:32:18;3.17;;;1.20;;
17812;SDS011;9030;50.792;8.320;2024-03-23T03:34:44;4.83;;;1.60;;
17812;SDS011;9030;50.792;8.320;2024-03-23T03:37:10;1.57;;;0.70;;
17812;SDS011;9030;50.792;8.320;2024-03-23T03:39:36;3.93;;;1.30;;
17812;SDS011;9030;50.792;8.320;2024-03-23T03:42:03;1.17;;;0.60;;
17812;SDS011;9030;50.792;8.320;2024-03-23T03:44:31;2.40;;;0.80;;
17812;SDS011;9030;50.792;8.320;2024-03-23T03:46:58;2.07;;;0.70;;
17812;SDS011;9030;50.792;8.320;2024-03-23T03:49:25;2.80;;;1.03;;
17812;SDS011;9030;50.792;8.320;2024-03-23T03:51:52;4.10;;;0.80;;
17812;SDS011;9030;50.792;8.320;2024-03-23T03:54:17;1.97;;;0.70;;
17812;SDS011;9030;50.792;8.320;2024-03-23T03:56:44;3.03;;;0.97;;
17812;SDS011;9030;50.792;8.320;2024-03-23T03:59:09;4.40;;;0.90;;
17812;SDS011;9030;50.792;8.320;2024-03-23T04:01:36;2.20;;;0.93;;
17812;SDS011;9030;50.792;8.320;2024-03-23T04:04:02;2.83;;;1.10;;
17812;SDS011;9030;50.792;8.320;2024-03-23T04:06:29;2.17;;;0.70;;
17812;SDS011;9030;50.792;8.320;2024-03-23T04:08:57;2.23;;;0.70;;
17812;SDS011;9030;50.792;8.320;2024-03-23T04:11:23;1.67;;;0.70;;
17812;SDS011;9030;50.792;8.320;2024-03-23T04:13:50;1.70;;;0.50;;
17812;SDS011;9030;50.792;8.320;2024-03-23T04:16:43;1.60;;;0.70;;
17812;SDS011;9030;50.792;8.320;2024-03-23T04:19:10;2.00;;;0.80;;
17812;SDS011;9030;50.792;8.320;2024-03-23T04:21:37;1.93;;;0.60;;
17812;SDS011;9030;50.792;8.320;2024-03-23T04:24:03;3.97;;;0.60;;
17812;SDS011;9030;50.792;8.320;2024-03-23T04:26:30;2.50;;;0.60;;
17812;SDS011;9030;50.792;8.320;2024-03-23T04:28:56;2.20;;;0.60;;
17812;SDS011;9030;50.792;8.320;2024-03-23T04:31:22;1.07;;;0.67;;
17812;SDS011;9030;50.792;8.320;2024-03-23T04:33:48;0.97;;;0.60;;
17812;SDS011;9030;50.792;8.320;2024-03-23T04:36:14;1.23;;;0.40;;
17812;SDS011;9030;50.792;8.320;2024-03-23T04:38:42;0.53;;;0.30;;
17812;SDS011;9030;50.792;8.320;2024-03-23T04:41:10;7.40;;;2.43;;
17812;SDS011;9030;50.792;8.320;2024-03-23T04:43:37;2.93;;;0.70;;
17812;SDS011;9030;50.792;8.320;2024-03-23T04:46:03;5.77;;;1.70;;
17812;SDS011;9030;50.792;8.320;2024-03-23T04:48:30;1.20;;;0.37;;
17812;SDS011;9030;50.792;8.320;2024-03-23T04:50:57;7.83;;;2.73;;
17812;SDS011;9030;50.792;8.320;2024-03-23T04:53:24;4.87;;;0.40;;
17812;SDS011;9030;50.792;8.320;2024-03-23T04:55:54;0.83;;;0.50;;
17812;SDS011;9030;50.792;8.320;2024-03-23T04:58:21;1.17;;;0.60;;
17812;SDS011;9030;50.792;8.320;2024-03-23T05:00:48;1.63;;;0.70;;
17812;SDS011;9030;50.792;8.320;2024-03-23T05:03:18;2.13;;;0.80;;
17812;SDS011;9030;50.792;8.320;2024-03-23T05:05:46;1.40;;;0.60;;
17812;SDS011;9030;50.792;8.320;2024-03-23T05:08:12;2.93;;;0.50;;
17812;SDS011;9030;50.792;8.320;2024-03-23T05:10:38;1.47;;;0.57;;
17812;SDS011;9030;50.792;8.320;2024-03-23T05:13:05;2.20;;;0.47;;
17812;SDS011;9030;50.792;8.320;2024-03-23T05:15:32;1.07;;;0.50;;
17812;SDS011;9030;50.792;8.320;2024-03-23T05:17:58;2.50;;;0.60;;
17812;SDS011;9030;50.792;8.320;2024-03-23T05:20:24;2.10;;;0.73;;
17812;SDS011;9030;50.792;8.320;2024-03-23T05:22:50;6.13;;;1.13;;
17812;SDS011;9030;50.792;8.320;2024-03-23T05:25:16;2.33;;;0.70;;
17812;SDS011;9030;50.792;8.320;2024-03-23T05:27:42;2.87;;;0.87;;
17812;SDS011;9030;50.792;8.320;2024-03-23T05:30:10;3.80;;;0.60;;
17812;SDS011;9030;50.792;8.320;2024-03-23T05:32:36;2.97;;;0.60;;
17812;SDS011;9030;50.792;8.320;2024-03-23T05:35:05;1.93;;;0.83;;
17812;SDS011;9030;50.792;8.320;2024-03-23T05:37:32;4.10;;;0.93;;
17812;SDS011;9030;50.792;8.320;2024-03-23T05:39:59;6.33;;;0.90;;
17812;SDS011;9030;50.792;8.320;2024-03-23T05:42:24;2.77;;;0.70;;
17812;SDS011;9030;50.792;8.320;2024-03-23T05:44:51;3.13;;;0.73;;
17812;SDS011;9030;50.792;8.320;2024-03-23T05:47:18;2.87;;;0.63;;
17812;SDS011;9030;50.792;8.320;2024-03-23T05:49:45;1.43;;;0.70;;
17812;SDS011;9030;50.792;8.320;2024-03-23T05:52:11;2.13;;;0.87;;
17812;SDS011;9030;50.792;8.320;2024-03-23T05:54:38;3.90;;;1.00;;
17812;SDS011;9030;50.792;8.320;2024-03-23T05:57:04;4.40;;;0.97;;
17812;SDS011;9030;50.792;8.320;2024-03-23T05:59:32;5.13;;;1.00;;
17812;SDS011;9030;50.792;8.320;2024-03-23T06:01:58;4.40;;;0.87;;
17812;SDS011;9030;50.792;8.320;2024-03-23T06:04:26;3.63;;;0.90;;
17812;SDS011;9030;50.792;8.320;2024-03-23T06:06:51;8.90;;;1.80;;
17812;SDS011;9030;50.792;8.320;2024-03-23T06:09:18;5.63;;;1.37;;
17812;SDS011;9030;50.792;8.320;2024-03-23T06:11:44;5.23;;;1.27;;
17812;SDS011;9030;50.792;8.320;2024-03-23T06:14:11;3.90;;;1.47;;
17812;SDS011;9030;50.792;8.320;2024-03-23T06:16:36;4.73;;;1.27;;
17812;SDS011;9030;50.792;8.320;2024-03-23T06:19:03;8.00;;;1.73;;
17812;SDS011;9030;50.792;8.320;2024-03-23T06:21:33;10.77;;;3.17;;
17812;SDS011;9030;50.792;8.320;2024-03-23T06:23:59;7.20;;;2.00;;
17812;SDS011;9030;50.792;8.320;2024-03-23T06:26:25;5.97;;;1.00;;
17812;SDS011;9030;50.792;8.320;2024-03-23T06:28:51;10.27;;;1.87;;
17812;SDS011;9030;50.792;8.320;2024-03-23T06:31:17;5.30;;;1.40;;
17812;SDS011;9030;50.792;8.320;2024-03-23T06:33:44;6.10;;;1.73;;
17812;SDS011;9030;50.792;8.320;2024-03-23T06:36:10;7.97;;;2.13;;
17812;SDS011;9030;50.792;8.320;2024-03-23T06:38:38;10.10;;;1.73;;
17812;SDS011;9030;50.792;8.320;2024-03-23T06:41:04;8.67;;;1.90;;
17812;SDS011;9030;50.792;8.320;2024-03-23T06:43:31;9.27;;;1.63;;
17812;SDS011;9030;50.792;8.320;2024-03-23T06:45:57;7.20;;;2.23;;
17812;SDS011;9030;50.792;8.320;2024-03-23T06:48:23;15.13;;;4.50;;
17812;SDS011;9030;50.792;8.320;2024-03-23T06:50:49;15.10;;;5.43;;
17812;SDS011;9030;50.792;8.320;2024-03-23T06:53:15;8.50;;;3.10;;
17812;SDS011;9030;50.792;8.320;2024-03-23T06:55:43;8.23;;;2.60;;
17812;SDS011;9030;50.792;8.320;2024-03-23T06:58:16;13.23;;;5.27;;
17812;SDS011;9030;50.792;8.320;2024-03-23T07:00:42;15.00;;;4.73;;
17812;SDS011;9030;50.792;8.320;2024-03-23T07:03:09;9.60;;;3.57;;
17812;SDS011;9030;50.792;8.320;2024-03-23T07:05:35;14.63;;;4.30;;
17812;SDS011;9030;50.792;8.320;2024-03-23T07:08:01;17.83;;;5.77;;
17812;SDS011;9030;50.792;8.320;2024-03-23T07:10:27;13.03;;;5.00;;
17812;SDS011;9030;50.792;8.320;2024-03-23T07:12:55;14.30;;;4.70;;
17812;SDS011;9030;50.792;8.320;2024-03-23T07:15:20;18.10;;;6.87;;
17812;SDS011;9030;50.792;8.320;2024-03-23T07:17:47;12.30;;;5.60;;
17812;SDS011;9030;50.792;8.320;2024-03-23T07:20:13;11.90;;;5.63;;
17812;SDS011;9030;50.792;8.320;2024-03-23T07:22:39;15.10;;;7.73;;
17812;SDS011;9030;50.792;8.320;2024-03-23T07:25:05;13.50;;;6.97;;
17812;SDS011;9030;50.792;8.320;2024-03-23T07:27:32;14.73;;;7.40;;
17812;SDS011;9030;50.792;8.320;2024-03-23T07:30:00;13.00;;;7.00;;
17812;SDS011;9030;50.792;8.320;2024-03-23T07:32:27;20.00;;;7.63;;
17812;SDS011;9030;50.792;8.320;2024-03-23T07:34:52;15.10;;;7.07;;
17812;SDS011;9030;50.792;8.320;2024-03-23T07:37:19;21.23;;;9.20;;
17812;SDS011;9030;50.792;8.320;2024-03-23T07:39:44;26.67;;;11.07;;
17812;SDS011;9030;50.792;8.320;2024-03-23T07:42:11;17.17;;;7.93;;
17812;SDS011;9030;50.792;8.320;2024-03-23T07:44:37;17.57;;;8.03;;
17812;SDS011;9030;50.792;8.320;2024-03-23T07:47:05;19.93;;;8.67;;
17812;SDS011;9030;50.792;8.320;2024-03-23T07:49:30;21.70;;;9.30;;
17812;SDS011;9030;50.792;8.320;2024-03-23T07:51:57;24.63;;;10.33;;
17812;SDS011;9030;50.792;8.320;2024-03-23T07:54:23;20.47;;;10.37;;
17812;SDS011;9030;50.792;8.320;2024-03-23T07:56:49;13.97;;;7.73;;
17812;SDS011;9030;50.792;8.320;2024-03-23T07:59:15;20.60;;;9.00;;
17812;SDS011;9030;50.792;8.320;2024-03-23T08:01:43;20.17;;;10.37;;
17812;SDS011;9030;50.792;8.320;2024-03-23T08:04:10;20.03;;;11.63;;
17812;SDS011;9030;50.792;8.320;2024-03-23T08:06:37;21.27;;;12.37;;
17812;SDS011;9030;50.792;8.320;2024-03-23T08:09:03;24.07;;;12.57;;
17812;SDS011;9030;50.792;8.320;2024-03-23T08:11:31;25.03;;;15.80;;
17812;SDS011;9030;50.792;8.320;2024-03-23T08:13:59;25.93;;;13.27;;
17812;SDS011;9030;50.792;8.320;2024-03-23T08:16:26;22.80;;;12.23;;
17812;SDS011;9030;50.792;8.320;2024-03-23T08:18:52;22.00;;;11.70;;
17812;SDS011;9030;50.792;8.320;2024-03-23T08:21:21;17.37;;;11.63;;
17812;SDS011;9030;50.792;8.320;2024-03-23T08:23:47;19.23;;;10.87;;
17812;SDS011;9030;50.792;8.320;2024-03-23T08:26:15;28.10;;;11.30;;
17812;SDS011;9030;50.792;8.320;2024-03-23T08:28:42;18.30;;;10.03;;
17812;SDS011;9030;50.792;8.320;2024-03-23T08:31:09;26.93;;;10.57;;
17812;SDS011;9030;50.792;8.320;2024-03-23T08:33:36;25.03;;;11.97;;
17812;SDS011;9030;50.792;8.320;2024-03-23T08:36:04;21.33;;;11.50;;
17812;SDS011;9030;50.792;8.320;2024-03-23T08:38:32;22.83;;;13.40;;
17812;SDS011;9030;50.792;8.320;2024-03-23T08:40:59;19.80;;;10.33;;
17812;SDS011;9030;50.792;8.320;2024-03-23T08:43:27;24.43;;;11.13;;
17812;SDS011;9030;50.792;8.320;2024-03-23T08:46:02;22.80;;;12.83;;
17812;SDS011;9030;50.792;8.320;2024-03-23T08:48:28;23.77;;;9.70;;
17812;SDS011;9030;50.792;8.320;2024-03-23T08:50:58;23.13;;;10.97;;
17812;SDS011;9030;50.792;8.320;2024-03-23T08:53:27;23.93;;;9.47;;
17812;SDS011;9030;50.792;8.320;2024-03-23T08:55:55;22.30;;;11.83;;
17812;SDS011;9030;50.792;8.320;2024-03-23T08:58:21;17.93;;;8.07;;
17812;SDS011;9030;50.792;8.320;2024-03-23T09:00:49;17.80;;;9.03;;
17812;SDS011;9030;50.792;8.320;2024-03-23T09:03:15;19.17;;;8.10;;
17812;SDS011;9030;50.792;8.320;2024-03-23T09:05:41;20.13;;;8.77;;
17812;SDS011;9030;50.792;8.320;2024-03-23T09:08:07;14.63;;;7.60;;
17812;SDS011;9030;50.792;8.320;2024-03-23T09:10:35;18.97;;;7.60;;
17812;SDS011;9030;50.792;8.320;2024-03-23T09:13:04;16.23;;;7.13;;
17812;SDS011;9030;50.792;8.320;2024-03-23T09:15:31;23.03;;;9.70;;
17812;SDS011;9030;50.792;8.320;2024-03-23T09:17:58;21.97;;;7.40;;
17812;SDS011;9030;50.792;8.320;2024-03-23T09:20:25;20.90;;;6.43;;
17812;SDS011;9030;50.792;8.320;2024-03-23T09:22:51;22.80;;;7.20;;
17812;SDS011;9030;50.792;8.320;2024-03-23T09:25:18;20.30;;;8.50;;
17812;SDS011;9030;50.792;8.320;2024-03-23T09:27:44;21.57;;;8.87;;
17812;SDS011;9030;50.792;8.320;2024-03-23T09:30:13;19.97;;;7.83;;
17812;SDS011;9030;50.792;8.320;2024-03-23T09:32:39;25.50;;;7.37;;
17812;SDS011;9030;50.792;8.320;2024-03-23T09:35:07;13.47;;;4.90;;
17812;SDS011;9030;50.792;8.320;2024-03-23T09:37:33;13.97;;;6.63;;
17812;SDS011;9030;50.792;8.320;2024-03-23T09:39:59;19.63;;;6.90;;
17812;SDS011;9030;50.792;8.320;2024-03-23T09:42:25;24.43;;;7.03;;
17812;SDS011;9030;50.792;8.320;2024-03-23T09:44:51;17.70;;;5.77;;
17812;SDS011;9030;50.792;8.320;2024-03-23T09:47:19;18.97;;;5.77;;
17812;SDS011;9030;50.792;8.320;2024-03-23T09:49:46;13.37;;;6.63;;
17812;SDS011;9030;50.792;8.320;2024-03-23T09:52:11;16.90;;;6.73;;
17812;SDS011;9030;50.792;8.320;2024-03-23T09:54:38;15.27;;;5.40;;
17812;SDS011;9030;50.792;8.320;2024-03-23T09:57:04;12.50;;;4.60;;
17812;SDS011;9030;50.792;8.320;2024-03-23T09:59:32;11.97;;;3.87;;
17812;SDS011;9030;50.792;8.320;2024-03-23T10:01:59;18.60;;;5.03;;
17812;SDS011;9030;50.792;8.320;2024-03-23T10:04:37;15.75;;;5.43;;
17812;SDS011;9030;50.792;8.320;2024-03-23T10:07:10;14.17;;;4.50;;
17812;SDS011;9030;50.792;8.320;2024-03-23T10:09:37;19.27;;;7.53;;
17812;SDS011;9030;50.792;8.320;2024-03-23T10:12:07;20.33;;;7.33;;
17812;SDS011;9030;50.792;8.320;2024-03-23T10:14:35;12.37;;;4.37;;
17812;SDS011;9030;50.792;8.320;2024-03-23T10:17:11;20.80;;;10.90;;
17812;SDS011;9030;50.792;8.320;2024-03-23T10:19:41;13.17;;;4.87;;
17812;SDS011;9030;50.792;8.320;2024-03-23T10:22:08;23.50;;;11.93;;
17812;SDS011;9030;50.792;8.320;2024-03-23T10:24:35;16.23;;;4.80;;
17812;SDS011;9030;50.792;8.320;2024-03-23T10:27:01;15.27;;;4.00;;
17812;SDS011;9030;50.792;8.320;2024-03-23T10:29:27;14.30;;;4.37;;
17812;SDS011;9030;50.792;8.320;2024-03-23T10:31:53;16.03;;;4.47;;
17812;SDS011;9030;50.792;8.320;2024-03-23T10:34:24;9.60;;;3.23;;
17812;SDS011;9030;50.792;8.320;2024-03-23T10:36:52;13.20;;;4.40;;
17812;SDS011;9030;50.792;8.320;2024-03-23T10:39:19;17.27;;;4.63;;
17812;SDS011;9030;50.792;8.320;2024-03-23T10:41:46;15.10;;;4.90;;
17812;SDS011;9030;50.792;8.320;2024-03-23T10:44:15;11.83;;;3.53;;
17812;SDS011;9030;50.792;8.320;2024-03-23T10:46:43;14.87;;;4.40;;
17812;SDS011;9030;50.792;8.320;2024-03-23T10:49:09;11.87;;;2.73;;
17812;SDS011;9030;50.792;8.320;2024-03-23T10:51:35;12.63;;;4.00;;
17812;SDS011;9030;50.792;8.320;2024-03-23T10:54:04;15.30;;;3.17;;
17812;SDS011;9030;50.792;8.320;2024-03-23T10:56:32;16.87;;;4.37;;
17812;SDS011;9030;50.792;8.320;2024-03-23T10:59:01;11.20;;;4.13;;
17812;SDS011;9030;50.792;8.320;2024-03-23T11:01:29;12.93;;;3.20;;
17812;SDS011;9030;50.792;8.320;2024-03-23T11:03:56;14.97;;;4.33;;
17812;SDS011;9030;50.792;8.320;2024-03-23T11:06:34;9.30;;;3.03;;
17812;SDS011;9030;50.792;8.320;2024-03-23T11:09:02;4.63;;;1.47;;
17812;SDS011;9030;50.792;8.320;2024-03-23T11:11:29;13.33;;;2.57;;
17812;SDS011;9030;50.792;8.320;2024-03-23T11:13:59;8.13;;;2.70;;
17812;SDS011;9030;50.792;8.320;2024-03-23T11:16:25;6.23;;;2.10;;
17812;SDS011;9030;50.792;8.320;2024-03-23T11:18:54;11.63;;;2.60;;
17812;SDS011;9030;50.792;8.320;2024-03-23T11:21:59;10.50;;;2.30;;
17812;SDS011;9030;50.792;8.320;2024-03-23T11:24:28;12.37;;;4.77;;
17812;SDS011;9030;50.792;8.320;2024-03-23T11:26:55;9.40;;;4.53;;
17812;SDS011;9030;50.792;8.320;2024-03-23T11:29:25;12.57;;;5.13;;
17812;SDS011;9030;50.792;8.320;2024-03-23T11:31:51;8.07;;;2.60;;
17812;SDS011;9030;50.792;8.320;2024-03-23T11:34:19;10.33;;;4.23;;
17812;SDS011;9030;50.792;8.320;2024-03-23T11:36:45;6.83;;;2.17;;
17812;SDS011;9030;50.792;8.320;2024-03-23T11:39:13;17.40;;;7.17;;
17812;SDS011;9030;50.792;8.320;2024-03-23T11:41:46;15.27;;;5.87;;
17812;SDS011;9030;50.792;8.320;2024-03-23T11:44:18;6.43;;;2.73;;
17812;SDS011;9030;50.792;8.320;2024-03-23T11:46:44;13.83;;;4.83;;
17812;SDS011;9030;50.792;8.320;2024-03-23T11:49:21;10.57;;;3.27;;
17812;SDS011;9030;50.792;8.320;2024-03-23T11:51:47;11.50;;;4.33;;
17812;SDS011;9030;50.792;8.320;2024-03-23T11:54:14;12.13;;;3.70;;
17812;SDS011;9030;50.792;8.320;2024-03-23T11:56:40;14.47;;;3.60;;
17812;SDS011;9030;50.792;8.320;2024-03-23T11:59:30;8.48;;;2.58;;
17812;SDS011;9030;50.792;8.320;2024-03-23T12:01:57;12.07;;;3.63;;
17812;SDS011;9030;50.792;8.320;2024-03-23T12:04:27;7.50;;;1.67;;
17812;SDS011;9030;50.792;8.320;2024-03-23T12:09:35;6.47;;;1.67;;
17812;SDS011;9030;50.792;8.320;2024-03-23T12:12:05;8.77;;;3.73;;
17812;SDS011;9030;50.792;8.320;2024-03-23T12:14:34;12.13;;;3.97;;
17812;SDS011;9030;50.792;8.320;2024-03-23T12:17:07;8.53;;;3.53;;
17812;SDS011;9030;50.792;8.320;2024-03-23T12:19:37;12.90;;;3.63;;
17812;SDS011;9030;50.792;8.320;2024-03-23T12:22:03;9.07;;;3.30;;
17812;SDS011;9030;50.792;8.320;2024-03-23T12:24:30;10.77;;;4.13;;
17812;SDS011;9030;50.792;8.320;2024-03-23T12:26:59;10.67;;;2.93;;
17812;SDS011;9030;50.792;8.320;2024-03-23T12:29:27;13.97;;;3.60;;
17812;SDS011;9030;50.792;8.320;2024-03-23T12:31:55;8.03;;;3.07;;
17812;SDS011;9030;50.792;8.320;2024-03-23T12:34:21;7.63;;;2.13;;
17812;SDS011;9030;50.792;8.320;2024-03-23T12:36:48;8.87;;;2.47;;
17812;SDS011;9030;50.792;8.320;2024-03-23T12:39:15;5.97;;;1.80;;
17812;SDS011;9030;50.792;8.320;2024-03-23T12:41:40;13.27;;;3.23;;
17812;SDS011;9030;50.792;8.320;2024-03-23T12:44:07;7.83;;;3.20;;
17812;SDS011;9030;50.792;8.320;2024-03-23T12:46:36;6.33;;;2.20;;
17812;SDS011;9030;50.792;8.320;2024-03-23T12:49:04;5.03;;;1.27;;
17812;SDS011;9030;50.792;8.320;2024-03-23T12:51:30;5.43;;;1.23;;
17812;SDS011;9030;50.792;8.320;2024-03-23T12:53:57;7.23;;;1.90;;
17812;SDS011;9030;50.792;8.320;2024-03-23T12:56:23;6.77;;;1.53;;
17812;SDS011;9030;50.792;8.320;2024-03-23T12:58:49;15.03;;;5.47;;
17812;SDS011;9030;50.792;8.320;2024-03-23T13:01:16;12.30;;;2.93;;
17812;SDS011;9030;50.792;8.320;2024-03-23T13:03:45;9.03;;;1.70;;
17812;SDS011;9030;50.792;8.320;2024-03-23T13:06:13;5.80;;;2.03;;
17812;SDS011;9030;50.792;8.320;2024-03-23T13:08:39;5.13;;;1.53;;
17812;SDS011;9030;50.792;8.320;2024-03-23T13:11:07;2.00;;;0.87;;
17812;SDS011;9030;50.792;8.320;2024-03-23T13:13:33;6.03;;;1.37;;
17812;SDS011;9030;50.792;8.320;2024-03-23T13:16:00;2.33;;;0.80;;
17812;SDS011;9030;50.792;8.320;2024-03-23T13:18:27;8.73;;;4.83;;
17812;SDS011;9030;50.792;8.320;2024-03-23T13:20:53;6.97;;;2.20;;
17812;SDS011;9030;50.792;8.320;2024-03-23T13:23:20;7.37;;;2.60;;
17812;SDS011;9030;50.792;8.320;2024-03-23T13:25:50;7.00;;;2.20;;
17812;SDS011;9030;50.792;8.320;2024-03-23T13:28:17;9.87;;;2.87;;
17812;SDS011;9030;50.792;8.320;2024-03-23T13:30:49;9.90;;;3.27;;
17812;SDS011;9030;50.792;8.320;2024-03-23T13:33:15;16.97;;;9.10;;
17812;SDS011;9030;50.792;8.320;2024-03-23T13:35:48;10.63;;;4.37;;
17812;SDS011;9030;50.792;8.320;2024-03-23T13:38:14;15.10;;;3.23;;
17812;SDS011;9030;50.792;8.320;2024-03-23T13:40:49;8.53;;;2.53;;
17812;SDS011;9030;50.792;8.320;2024-03-23T13:43:18;3.93;;;1.73;;
17812;SDS011;9030;50.792;8.320;2024-03-23T13:45:45;14.93;;;4.40;;
17812;SDS011;9030;50.792;8.320;2024-03-23T13:48:12;10.57;;;2.93;;
17812;SDS011;9030;50.792;8.320;2024-03-23T13:50:38;5.00;;;1.67;;
17812;SDS011;9030;50.792;8.320;2024-03-23T13:53:04;3.97;;;1.67;;
17812;SDS011;9030;50.792;8.320;2024-03-23T13:55:31;16.37;;;6.50;;
17812;SDS011;9030;50.792;8.320;2024-03-23T13:57:58;9.33;;;3.83;;
17812;SDS011;9030;50.792;8.320;2024-03-23T14:00:24;6.33;;;2.50;;
17812;SDS011;9030;50.792;8.320;2024-03-23T14:02:50;5.47;;;1.83;;
17812;SDS011;9030;50.792;8.320;2024-03-23T14:05:17;10.03;;;2.93;;
17812;SDS011;9030;50.792;8.320;2024-03-23T14:07:42;10.67;;;4.10;;
17812;SDS011;9030;50.792;8.320;2024-03-23T14:10:09;9.53;;;3.53;;
17812;SDS011;9030;50.792;8.320;2024-03-23T14:12:40;6.83;;;2.63;;
17812;SDS011;9030;50.792;8.320;2024-03-23T14:15:48;8.47;;;3.87;;
17812;SDS011;9030;50.792;8.320;2024-03-23T14:18:18;9.87;;;4.60;;
17812;SDS011;9030;50.792;8.320;2024-03-23T14:20:44;7.83;;;3.37;;
17812;SDS011;9030;50.792;8.320;2024-03-23T14:23:11;9.57;;;3.00;;
17812;SDS011;9030;50.792;8.320;2024-03-23T14:25:36;11.07;;;3.53;;
17812;SDS011;9030;50.792;8.320;2024-03-23T14:28:03;11.17;;;3.80;;
17812;SDS011;9030;50.792;8.320;2024-03-23T14:30:29;14.30;;;6.17;;
17812;SDS011;9030;50.792;8.320;2024-03-23T14:32:57;15.77;;;4.83;;
17812;SDS011;9030;50.792;8.320;2024-03-23T14:35:24;11.97;;;4.63;;
17812;SDS011;9030;50.792;8.320;2024-03-23T14:37:51;8.43;;;4.20;;
17812;SDS011;9030;50.792;8.320;2024-03-23T14:40:18;10.47;;;4.03;;
17812;SDS011;9030;50.792;8.320;2024-03-23T14:42:45;9.07;;;4.13;;
17812;SDS011;9030;50.792;8.320;2024-03-23T14:45:10;12.67;;;3.93;;
17812;SDS011;9030;50.792;8.320;2024-03-23T14:47:37;8.07;;;3.03;;
17812;SDS011;9030;50.792;8.320;2024-03-23T14:50:04;9.40;;;4.40;;
17812;SDS011;9030;50.792;8.320;2024-03-23T14:52:33;10.70;;;3.57;;
17812;SDS011;9030;50.792;8.320;2024-03-23T14:54:59;8.83;;;3.27;;
17812;SDS011;9030;50.792;8.320;2024-03-23T14:57:25;11.00;;;3.83;;
17812;SDS011;9030;50.792;8.320;2024-03-23T14:59:54;9.93;;;3.53;;
17812;SDS011;9030;50.792;8.320;2024-03-23T15:02:20;7.87;;;3.60;;
17812;SDS011;9030;50.792;8.320;2024-03-23T15:04:46;14.30;;;3.87;;
17812;SDS011;9030;50.792;8.320;2024-03-23T15:07:14;14.73;;;5.73;;
17812;SDS011;9030;50.792;8.320;2024-03-23T15:09:40;11.40;;;3.73;;
17812;SDS011;9030;50.792;8.320;2024-03-23T15:12:07;9.70;;;3.93;;
17812;SDS011;9030;50.792;8.320;2024-03-23T15:14:32;11.83;;;3.80;;
17812;SDS011;9030;50.792;8.320;2024-03-23T15:16:59;19.80;;;10.30;;
17812;SDS011;9030;50.792;8.320;2024-03-23T15:19:25;46.63;;;24.93;;
17812;SDS011;9030;50.792;8.320;2024-03-23T15:21:51;11.17;;;5.27;;
17812;SDS011;9030;50.792;8.320;2024-03-23T15:24:18;13.47;;;4.47;;
17812;SDS011;9030;50.792;8.320;2024-03-23T15:26:45;11.03;;;4.50;;
17812;SDS011;9030;50.792;8.320;2024-03-23T15:29:11;9.73;;;4.17;;
17812;SDS011;9030;50.792;8.320;2024-03-23T15:31:41;10.47;;;4.13;;
17812;SDS011;9030;50.792;8.320;2024-03-23T15:34:07;8.70;;;4.43;;
17812;SDS011;9030;50.792;8.320;2024-03-23T15:36:35;11.37;;;5.10;;
17812;SDS011;9030;50.792;8.320;2024-03-23T15:39:02;16.57;;;8.63;;
17812;SDS011;9030;50.792;8.320;2024-03-23T15:41:30;12.27;;;5.83;;
17812;SDS011;9030;50.792;8.320;2024-03-23T15:43:57;10.53;;;4.13;;
17812;SDS011;9030;50.792;8.320;2024-03-23T15:46:23;9.73;;;3.67;;
17812;SDS011;9030;50.792;8.320;2024-03-23T15:48:50;10.97;;;3.73;;